sensor_id;sensor_type;location;lat;lon;timestamp;P1;durP1;ratioP1;P2;durP2;ratioP2
75504;SDS011;64085;54.974;73.410;2023-07-13T00:01:50;3.90;;;3.55;;
75504;SDS011;64085;54.974;73.410;2023-07-13T00:04:20;3.75;;;3.25;;
75504;SDS011;64085;54.974;73.410;2023-07-13T00:06:46;3.65;;;3.35;;
75504;SDS011;64085;54.974;73.410;2023-07-13T00:09:15;5.28;;;3.60;;
75504;SDS011;64085;54.974;73.410;2023-07-13T00:11:41;5.93;;;3.55;;
75504;SDS011;64085;54.974;73.410;2023-07-13T00:14:07;4.13;;;3.22;;
75504;SDS011;64085;54.974;73.410;2023-07-13T00:16:34;4.55;;;4.10;;
75504;SDS011;64085;54.974;73.410;2023-07-13T00:18:59;8.20;;;4.15;;
75504;SDS011;64085;54.974;73.410;2023-07-13T00:21:25;6.13;;;5.22;;
75504;SDS011;64085;54.974;73.410;2023-07-13T00:23:51;9.18;;;4.25;;
75504;SDS011;64085;54.974;73.410;2023-07-13T00:26:16;6.05;;;4.30;;
75504;SDS011;64085;54.974;73.410;2023-07-13T00:28:42;10.30;;;5.18;;
75504;SDS011;64085;54.974;73.410;2023-07-13T00:31:08;8.13;;;4.22;;
75504;SDS011;64085;54.974;73.410;2023-07-13T00:33:34;6.05;;;4.38;;
75504;SDS011;64085;54.974;73.410;2023-07-13T00:35:59;6.82;;;4.00;;
75504;SDS011;64085;54.974;73.410;2023-07-13T00:38:25;5.07;;;4.30;;
75504;SDS011;64085;54.974;73.410;2023-07-13T00:40:53;5.40;;;3.85;;
75504;SDS011;64085;54.974;73.410;2023-07-13T00:43:19;6.28;;;3.88;;
75504;SDS011;64085;54.974;73.410;2023-07-13T00:48:11;7.07;;;3.72;;
75504;SDS011;64085;54.974;73.410;2023-07-13T00:50:37;6.53;;;4.07;;
75504;SDS011;64085;54.974;73.410;2023-07-13T00:53:03;5.40;;;4.47;;
75504;SDS011;64085;54.974;73.410;2023-07-13T00:55:29;4.05;;;3.45;;
75504;SDS011;64085;54.974;73.410;2023-07-13T00:57:55;5.20;;;3.85;;
75504;SDS011;64085;54.974;73.410;2023-07-13T01:00:20;8.73;;;5.03;;
75504;SDS011;64085;54.974;73.410;2023-07-13T01:02:47;5.13;;;4.03;;
75504;SDS011;64085;54.974;73.410;2023-07-13T01:05:15;7.40;;;4.25;;
75504;SDS011;64085;54.974;73.410;2023-07-13T01:10:06;5.00;;;4.47;;
75504;SDS011;64085;54.974;73.410;2023-07-13T01:12:54;6.15;;;3.70;;
75504;SDS011;64085;54.974;73.410;2023-07-13T01:18:04;10.73;;;4.68;;
75504;SDS011;64085;54.974;73.410;2023-07-13T01:20:30;5.72;;;3.83;;
75504;SDS011;64085;54.974;73.410;2023-07-13T01:22:55;5.78;;;4.38;;
75504;SDS011;64085;54.974;73.410;2023-07-13T01:25:21;9.75;;;4.40;;
75504;SDS011;64085;54.974;73.410;2023-07-13T01:27:46;6.50;;;4.72;;
75504;SDS011;64085;54.974;73.410;2023-07-13T01:30:12;7.55;;;4.75;;
75504;SDS011;64085;54.974;73.410;2023-07-13T01:32:37;7.18;;;4.65;;
75504;SDS011;64085;54.974;73.410;2023-07-13T01:35:07;8.45;;;4.47;;
75504;SDS011;64085;54.974;73.410;2023-07-13T01:37:32;6.47;;;5.25;;
75504;SDS011;64085;54.974;73.410;2023-07-13T01:40:01;9.63;;;4.38;;
75504;SDS011;64085;54.974;73.410;2023-07-13T01:42:28;9.65;;;4.57;;
75504;SDS011;64085;54.974;73.410;2023-07-13T01:44:53;9.02;;;4.90;;
75504;SDS011;64085;54.974;73.410;2023-07-13T01:47:19;8.38;;;4.70;;
75504;SDS011;64085;54.974;73.410;2023-07-13T01:49:44;7.63;;;5.22;;
75504;SDS011;64085;54.974;73.410;2023-07-13T01:52:12;5.55;;;4.57;;
75504;SDS011;64085;54.974;73.410;2023-07-13T01:54:37;10.95;;;5.45;;
75504;SDS011;64085;54.974;73.410;2023-07-13T01:57:03;6.82;;;4.97;;
75504;SDS011;64085;54.974;73.410;2023-07-13T01:59:28;10.35;;;5.63;;
75504;SDS011;64085;54.974;73.410;2023-07-13T02:01:54;9.98;;;5.55;;
75504;SDS011;64085;54.974;73.410;2023-07-13T02:04:20;10.57;;;5.38;;
75504;SDS011;64085;54.974;73.410;2023-07-13T02:06:45;13.73;;;6.75;;
75504;SDS011;64085;54.974;73.410;2023-07-13T02:09:11;7.82;;;5.70;;
75504;SDS011;64085;54.974;73.410;2023-07-13T02:11:36;9.15;;;5.88;;
75504;SDS011;64085;54.974;73.410;2023-07-13T02:14:01;8.52;;;5.93;;
75504;SDS011;64085;54.974;73.410;2023-07-13T02:16:27;7.32;;;5.68;;
75504;SDS011;64085;54.974;73.410;2023-07-13T02:18:53;8.65;;;5.75;;
75504;SDS011;64085;54.974;73.410;2023-07-13T02:21:18;7.32;;;5.78;;
75504;SDS011;64085;54.974;73.410;2023-07-13T02:23:44;9.80;;;5.65;;
75504;SDS011;64085;54.974;73.410;2023-07-13T02:26:09;9.40;;;6.50;;
75504;SDS011;64085;54.974;73.410;2023-07-13T02:28:35;12.20;;;6.43;;
75504;SDS011;64085;54.974;73.410;2023-07-13T02:31:12;10.00;;;6.68;;
75504;SDS011;64085;54.974;73.410;2023-07-13T02:33:38;9.23;;;7.35;;
75504;SDS011;64085;54.974;73.410;2023-07-13T02:36:03;11.40;;;7.25;;
75504;SDS011;64085;54.974;73.410;2023-07-13T02:38:30;11.73;;;7.22;;
75504;SDS011;64085;54.974;73.410;2023-07-13T02:40:58;11.20;;;8.18;;
75504;SDS011;64085;54.974;73.410;2023-07-13T02:43:24;9.32;;;6.95;;
75504;SDS011;64085;54.974;73.410;2023-07-13T02:45:49;8.73;;;7.03;;
75504;SDS011;64085;54.974;73.410;2023-07-13T02:48:15;13.15;;;7.70;;
75504;SDS011;64085;54.974;73.410;2023-07-13T02:50:40;10.38;;;7.18;;
75504;SDS011;64085;54.974;73.410;2023-07-13T02:53:05;10.45;;;8.07;;
75504;SDS011;64085;54.974;73.410;2023-07-13T02:55:33;9.30;;;7.05;;
75504;SDS011;64085;54.974;73.410;2023-07-13T02:57:59;15.30;;;7.50;;
75504;SDS011;64085;54.974;73.410;2023-07-13T03:00:24;11.07;;;7.88;;
75504;SDS011;64085;54.974;73.410;2023-07-13T03:02:50;12.88;;;7.65;;
75504;SDS011;64085;54.974;73.410;2023-07-13T03:05:15;8.52;;;7.43;;
75504;SDS011;64085;54.974;73.410;2023-07-13T03:07:41;13.45;;;7.05;;
75504;SDS011;64085;54.974;73.410;2023-07-13T03:10:07;11.85;;;8.77;;
75504;SDS011;64085;54.974;73.410;2023-07-13T03:12:33;8.38;;;7.32;;
75504;SDS011;64085;54.974;73.410;2023-07-13T03:14:58;10.18;;;7.88;;
75504;SDS011;64085;54.974;73.410;2023-07-13T03:17:24;13.07;;;8.20;;
75504;SDS011;64085;54.974;73.410;2023-07-13T03:19:49;13.05;;;7.55;;
75504;SDS011;64085;54.974;73.410;2023-07-13T03:22:16;13.25;;;8.65;;
75504;SDS011;64085;54.974;73.410;2023-07-13T03:24:42;16.00;;;9.05;;
75504;SDS011;64085;54.974;73.410;2023-07-13T03:27:07;12.73;;;7.97;;
75504;SDS011;64085;54.974;73.410;2023-07-13T03:29:33;13.00;;;9.35;;
75504;SDS011;64085;54.974;73.410;2023-07-13T03:31:58;10.77;;;8.52;;
75504;SDS011;64085;54.974;73.410;2023-07-13T03:34:24;17.08;;;9.65;;
75504;SDS011;64085;54.974;73.410;2023-07-13T03:36:49;16.27;;;9.77;;
75504;SDS011;64085;54.974;73.410;2023-07-13T03:39:14;15.32;;;9.75;;
75504;SDS011;64085;54.974;73.410;2023-07-13T03:41:40;13.50;;;9.13;;
75504;SDS011;64085;54.974;73.410;2023-07-13T03:44:05;11.98;;;8.48;;
75504;SDS011;64085;54.974;73.410;2023-07-13T03:46:31;12.70;;;9.88;;
75504;SDS011;64085;54.974;73.410;2023-07-13T03:48:57;13.80;;;8.75;;
75504;SDS011;64085;54.974;73.410;2023-07-13T03:51:22;13.35;;;9.90;;
75504;SDS011;64085;54.974;73.410;2023-07-13T03:53:48;12.60;;;9.75;;
75504;SDS011;64085;54.974;73.410;2023-07-13T03:56:14;13.10;;;8.85;;
75504;SDS011;64085;54.974;73.410;2023-07-13T03:58:40;13.30;;;9.50;;
75504;SDS011;64085;54.974;73.410;2023-07-13T04:01:07;13.45;;;9.32;;
75504;SDS011;64085;54.974;73.410;2023-07-13T04:03:33;12.57;;;10.40;;
75504;SDS011;64085;54.974;73.410;2023-07-13T04:06:02;18.75;;;10.68;;
75504;SDS011;64085;54.974;73.410;2023-07-13T04:08:32;12.10;;;9.75;;
75504;SDS011;64085;54.974;73.410;2023-07-13T04:10:57;13.00;;;9.93;;
75504;SDS011;64085;54.974;73.410;2023-07-13T04:13:23;11.93;;;10.60;;
75504;SDS011;64085;54.974;73.410;2023-07-13T04:15:49;15.98;;;10.70;;
75504;SDS011;64085;54.974;73.410;2023-07-13T04:18:14;11.50;;;10.30;;
75504;SDS011;64085;54.974;73.410;2023-07-13T04:20:40;13.85;;;12.45;;
75504;SDS011;64085;54.974;73.410;2023-07-13T04:23:06;12.50;;;10.50;;
75504;SDS011;64085;54.974;73.410;2023-07-13T04:25:33;13.68;;;10.38;;
75504;SDS011;64085;54.974;73.410;2023-07-13T04:27:58;14.52;;;11.77;;
75504;SDS011;64085;54.974;73.410;2023-07-13T04:30:25;15.30;;;11.63;;
75504;SDS011;64085;54.974;73.410;2023-07-13T04:32:52;13.85;;;12.60;;
75504;SDS011;64085;54.974;73.410;2023-07-13T04:35:19;14.70;;;11.50;;
75504;SDS011;64085;54.974;73.410;2023-07-13T04:37:46;14.27;;;12.82;;
75504;SDS011;64085;54.974;73.410;2023-07-13T04:40:12;19.15;;;13.60;;
75504;SDS011;64085;54.974;73.410;2023-07-13T04:42:38;17.55;;;14.63;;
75504;SDS011;64085;54.974;73.410;2023-07-13T04:45:05;16.38;;;13.63;;
75504;SDS011;64085;54.974;73.410;2023-07-13T04:47:30;18.50;;;14.65;;
75504;SDS011;64085;54.974;73.410;2023-07-13T04:49:56;17.05;;;14.75;;
75504;SDS011;64085;54.974;73.410;2023-07-13T04:52:22;19.83;;;15.93;;
75504;SDS011;64085;54.974;73.410;2023-07-13T04:54:48;17.52;;;15.00;;
75504;SDS011;64085;54.974;73.410;2023-07-13T04:57:13;18.25;;;15.93;;
75504;SDS011;64085;54.974;73.410;2023-07-13T04:59:39;19.85;;;17.33;;
75504;SDS011;64085;54.974;73.410;2023-07-13T05:02:05;21.55;;;15.77;;
75504;SDS011;64085;54.974;73.410;2023-07-13T05:04:31;18.58;;;16.20;;
75504;SDS011;64085;54.974;73.410;2023-07-13T05:06:56;18.75;;;17.05;;
75504;SDS011;64085;54.974;73.410;2023-07-13T05:09:22;16.75;;;15.25;;
75504;SDS011;64085;54.974;73.410;2023-07-13T05:11:49;16.38;;;14.88;;
75504;SDS011;64085;54.974;73.410;2023-07-13T05:14:15;19.38;;;16.15;;
75504;SDS011;64085;54.974;73.410;2023-07-13T05:16:41;16.45;;;14.77;;
75504;SDS011;64085;54.974;73.410;2023-07-13T05:19:07;18.48;;;14.88;;
75504;SDS011;64085;54.974;73.410;2023-07-13T05:21:32;18.73;;;15.50;;
75504;SDS011;64085;54.974;73.410;2023-07-13T05:23:58;17.48;;;14.18;;
75504;SDS011;64085;54.974;73.410;2023-07-13T05:26:23;17.20;;;15.23;;
75504;SDS011;64085;54.974;73.410;2023-07-13T05:28:49;17.13;;;14.82;;
75504;SDS011;64085;54.974;73.410;2023-07-13T05:31:14;18.45;;;16.30;;
75504;SDS011;64085;54.974;73.410;2023-07-13T05:33:39;18.00;;;13.90;;
75504;SDS011;64085;54.974;73.410;2023-07-13T05:36:05;21.80;;;14.95;;
75504;SDS011;64085;54.974;73.410;2023-07-13T05:38:32;24.05;;;17.33;;
75504;SDS011;64085;54.974;73.410;2023-07-13T05:40:57;21.63;;;15.82;;
75504;SDS011;64085;54.974;73.410;2023-07-13T05:43:23;22.92;;;16.50;;
75504;SDS011;64085;54.974;73.410;2023-07-13T05:45:48;18.38;;;16.00;;
75504;SDS011;64085;54.974;73.410;2023-07-13T05:48:14;18.38;;;15.77;;
75504;SDS011;64085;54.974;73.410;2023-07-13T05:50:40;23.10;;;16.25;;
75504;SDS011;64085;54.974;73.410;2023-07-13T05:53:05;21.15;;;14.52;;
75504;SDS011;64085;54.974;73.410;2023-07-13T05:55:31;17.50;;;15.18;;
75504;SDS011;64085;54.974;73.410;2023-07-13T05:57:56;23.38;;;14.70;;
75504;SDS011;64085;54.974;73.410;2023-07-13T06:00:23;21.63;;;15.38;;
75504;SDS011;64085;54.974;73.410;2023-07-13T06:02:49;19.67;;;15.35;;
75504;SDS011;64085;54.974;73.410;2023-07-13T06:05:14;20.67;;;14.27;;
75504;SDS011;64085;54.974;73.410;2023-07-13T06:07:40;21.92;;;14.73;;
75504;SDS011;64085;54.974;73.410;2023-07-13T06:10:06;17.63;;;13.73;;
75504;SDS011;64085;54.974;73.410;2023-07-13T06:12:31;20.92;;;14.23;;
75504;SDS011;64085;54.974;73.410;2023-07-13T06:14:57;17.40;;;13.75;;
75504;SDS011;64085;54.974;73.410;2023-07-13T06:17:22;20.80;;;14.00;;
75504;SDS011;64085;54.974;73.410;2023-07-13T06:19:47;22.65;;;14.35;;
75504;SDS011;64085;54.974;73.410;2023-07-13T06:22:13;23.98;;;13.43;;
75504;SDS011;64085;54.974;73.410;2023-07-13T06:24:38;25.40;;;13.73;;
75504;SDS011;64085;54.974;73.410;2023-07-13T06:27:04;25.90;;;13.93;;
75504;SDS011;64085;54.974;73.410;2023-07-13T06:29:32;25.60;;;13.93;;
75504;SDS011;64085;54.974;73.410;2023-07-13T06:31:58;30.25;;;14.02;;
75504;SDS011;64085;54.974;73.410;2023-07-13T06:34:23;28.92;;;14.00;;
75504;SDS011;64085;54.974;73.410;2023-07-13T06:36:49;25.52;;;14.27;;
75504;SDS011;64085;54.974;73.410;2023-07-13T06:39:14;25.45;;;13.57;;
75504;SDS011;64085;54.974;73.410;2023-07-13T06:41:40;25.33;;;14.85;;
75504;SDS011;64085;54.974;73.410;2023-07-13T06:44:05;24.90;;;15.32;;
75504;SDS011;64085;54.974;73.410;2023-07-13T06:46:33;28.35;;;14.15;;
75504;SDS011;64085;54.974;73.410;2023-07-13T06:48:58;28.08;;;13.77;;
75504;SDS011;64085;54.974;73.410;2023-07-13T06:51:23;27.17;;;13.20;;
75504;SDS011;64085;54.974;73.410;2023-07-13T06:53:49;27.35;;;13.25;;
75504;SDS011;64085;54.974;73.410;2023-07-13T06:56:15;21.23;;;12.43;;
75504;SDS011;64085;54.974;73.410;2023-07-13T06:58:40;26.17;;;13.80;;
75504;SDS011;64085;54.974;73.410;2023-07-13T07:01:06;27.20;;;12.68;;
75504;SDS011;64085;54.974;73.410;2023-07-13T07:03:31;27.42;;;12.73;;
75504;SDS011;64085;54.974;73.410;2023-07-13T07:06:17;24.30;;;12.10;;
75504;SDS011;64085;54.974;73.410;2023-07-13T07:08:42;24.08;;;12.18;;
75504;SDS011;64085;54.974;73.410;2023-07-13T07:11:09;31.85;;;12.88;;
75504;SDS011;64085;54.974;73.410;2023-07-13T07:13:35;28.38;;;12.77;;
75504;SDS011;64085;54.974;73.410;2023-07-13T07:16:00;26.75;;;13.43;;
75504;SDS011;64085;54.974;73.410;2023-07-13T07:18:26;24.55;;;12.63;;
75504;SDS011;64085;54.974;73.410;2023-07-13T07:20:51;28.83;;;13.48;;
75504;SDS011;64085;54.974;73.410;2023-07-13T07:23:17;27.05;;;12.45;;
75504;SDS011;64085;54.974;73.410;2023-07-13T07:25:44;28.92;;;14.18;;
75504;SDS011;64085;54.974;73.410;2023-07-13T07:28:09;31.63;;;14.50;;
75504;SDS011;64085;54.974;73.410;2023-07-13T07:30:35;27.60;;;14.13;;
75504;SDS011;64085;54.974;73.410;2023-07-13T07:33:00;35.38;;;14.25;;
75504;SDS011;64085;54.974;73.410;2023-07-13T07:35:26;25.80;;;12.23;;
75504;SDS011;64085;54.974;73.410;2023-07-13T07:37:51;23.40;;;11.77;;
75504;SDS011;64085;54.974;73.410;2023-07-13T07:40:17;26.90;;;11.02;;
75504;SDS011;64085;54.974;73.410;2023-07-13T07:42:43;21.10;;;11.02;;
75504;SDS011;64085;54.974;73.410;2023-07-13T07:45:08;24.23;;;11.38;;
75504;SDS011;64085;54.974;73.410;2023-07-13T07:47:36;24.35;;;11.35;;
